createdAt,value
2022-11-06T00:01:15.549Z,57.38
2022-11-06T00:03:47.990Z,42.83
2022-11-06T00:06:38.335Z,55.15
2022-11-06T00:09:12.353Z,59.10
2022-11-06T00:11:44.733Z,60.67
2022-11-06T00:14:18.048Z,46.28
2022-11-06T00:16:50.405Z,53.15
2022-11-06T00:19:22.766Z,54.03
2022-11-06T00:21:55.117Z,44.03
2022-11-06T00:24:27.513Z,31.90
2022-11-06T00:26:59.924Z,33.92
2022-11-06T00:29:32.949Z,37.15
2022-11-06T00:32:05.309Z,29.80
2022-11-06T00:34:37.635Z,30.00
2022-11-06T00:37:10.262Z,36.63
2022-11-06T00:39:42.614Z,40.47
2022-11-06T00:42:14.994Z,32.00
2022-11-06T00:44:48.470Z,33.95
2022-11-06T00:47:20.863Z,36.63
2022-11-06T00:49:53.265Z,36.60
2022-11-06T00:52:25.623Z,31.90
2022-11-06T00:54:57.972Z,31.02
2022-11-06T00:57:30.349Z,35.15
2022-11-06T01:00:04.292Z,31.15
2022-11-06T01:02:37.876Z,37.65
2022-11-06T01:05:10.350Z,37.35
2022-11-06T01:07:42.794Z,41.10
2022-11-06T01:10:15.174Z,32.58
2022-11-06T01:12:47.537Z,36.35
2022-11-06T01:15:20.555Z,37.13
2022-11-06T01:17:52.924Z,38.88
2022-11-06T01:20:25.639Z,42.67
2022-11-06T01:22:58.028Z,35.80
2022-11-06T01:25:30.472Z,38.30
2022-11-06T01:28:02.972Z,39.75
2022-11-06T01:30:37.210Z,33.33
2022-11-06T01:33:09.564Z,29.30
2022-11-06T01:35:44.908Z,34.38
2022-11-06T01:38:17.997Z,42.47
2022-11-06T01:40:50.512Z,34.15
2022-11-06T01:43:24.963Z,33.55
2022-11-06T01:45:58.085Z,31.73
2022-11-06T01:48:30.574Z,37.75
2022-11-06T01:51:03.165Z,33.40
2022-11-06T01:53:37.085Z,28.58
2022-11-06T01:56:12.062Z,35.00
2022-11-06T01:58:47.340Z,35.00
2022-11-06T02:01:20.554Z,29.98
2022-11-06T02:03:57.595Z,22.77
2022-11-06T02:06:31.181Z,16.92
2022-11-06T02:09:10.521Z,22.58
2022-11-06T02:11:45.060Z,19.40
2022-11-06T02:14:28.284Z,26.40
2022-11-06T02:17:09.042Z,26.60
2022-11-06T02:19:54.161Z,29.48
2022-11-06T02:22:39.837Z,32.60
2022-11-06T02:25:19.525Z,23.85
2022-11-06T02:28:02.461Z,16.98
2022-11-06T02:30:41.293Z,19.13
2022-11-06T02:33:16.588Z,23.73
2022-11-06T02:35:52.897Z,22.98
2022-11-06T02:38:30.456Z,22.55
2022-11-06T02:41:06.655Z,27.60
2022-11-06T02:43:44.147Z,27.45
2022-11-06T02:46:20.454Z,27.40
2022-11-06T02:48:58.668Z,18.58
2022-11-06T02:51:36.048Z,21.15
2022-11-06T02:54:10.433Z,21.83
2022-11-06T02:56:45.764Z,23.77
2022-11-06T02:59:21.813Z,22.63
2022-11-06T03:01:58.548Z,19.75
2022-11-06T03:04:37.395Z,16.92
2022-11-06T03:07:15.707Z,20.00
2022-11-06T03:09:49.206Z,20.40
2022-11-06T03:12:27.522Z,19.67
2022-11-06T03:15:10.998Z,24.35
2022-11-06T03:17:50.222Z,27.55
2022-11-06T03:20:29.468Z,29.88
2022-11-06T03:23:10.621Z,20.77
2022-11-06T03:25:50.834Z,28.75
2022-11-06T03:28:29.414Z,26.75
2022-11-06T03:31:06.383Z,27.75
2022-11-06T03:33:44.113Z,21.73
2022-11-06T03:36:22.975Z,25.60
2022-11-06T03:39:04.082Z,26.67
2022-11-06T03:41:42.081Z,26.30
2022-11-06T03:44:17.773Z,19.48
2022-11-06T03:46:59.864Z,25.25
2022-11-06T03:49:37.171Z,23.77
2022-11-06T03:52:13.278Z,21.02
2022-11-06T03:54:54.380Z,24.55
2022-11-06T03:57:33.770Z,23.77
2022-11-06T04:00:08.402Z,24.60
2022-11-06T04:02:52.537Z,25.35
2022-11-06T04:05:25.084Z,17.33
2022-11-06T04:08:16.214Z,23.90
2022-11-06T04:11:10.364Z,19.88
2022-11-06T04:14:01.271Z,20.33
2022-11-06T04:16:36.316Z,18.38
2022-11-06T04:19:15.536Z,24.92
2022-11-06T04:22:18.028Z,21.52
2022-11-06T04:25:21.675Z,20.85
2022-11-06T04:28:06.368Z,20.48
2022-11-06T04:30:45.602Z,22.25
2022-11-06T04:33:25.512Z,23.38
2022-11-06T04:36:06.739Z,28.00
2022-11-06T04:38:46.943Z,27.80
2022-11-06T04:41:33.588Z,29.67
2022-11-06T04:44:09.951Z,23.15
2022-11-06T04:46:46.942Z,19.00
2022-11-06T04:49:21.354Z,17.58
2022-11-06T04:51:55.113Z,21.90
2022-11-06T04:54:27.854Z,23.60
2022-11-06T04:57:01.264Z,18.55
2022-11-06T04:59:36.157Z,20.30
2022-11-06T05:02:08.695Z,15.65
2022-11-06T05:04:41.120Z,19.30
2022-11-06T05:07:14.440Z,12.07
2022-11-06T05:09:46.777Z,18.67
2022-11-06T05:12:19.162Z,14.13
2022-11-06T05:14:51.530Z,19.58
2022-11-06T05:17:23.808Z,25.70
2022-11-06T05:19:56.172Z,20.25
2022-11-06T05:22:47.424Z,30.42
2022-11-06T05:25:19.772Z,24.30
2022-11-06T05:27:52.085Z,21.35
2022-11-06T05:30:24.966Z,23.52
2022-11-06T05:32:57.288Z,17.15
2022-11-06T05:35:29.645Z,17.95
2022-11-06T05:38:03.202Z,16.83
2022-11-06T05:40:35.516Z,20.02
2022-11-06T05:43:07.912Z,20.40
2022-11-06T05:45:40.238Z,19.33
2022-11-06T05:48:12.777Z,18.67
2022-11-06T05:50:45.328Z,18.92
2022-11-06T05:53:21.506Z,21.50
2022-11-06T05:55:53.902Z,17.55
2022-11-06T05:58:26.615Z,23.17
2022-11-06T06:00:59.101Z,20.63
2022-11-06T06:03:31.785Z,18.77
2022-11-06T06:06:04.868Z,14.93
2022-11-06T06:08:38.455Z,17.98
2022-11-06T06:11:10.822Z,21.25
2022-11-06T06:13:43.543Z,21.88
2022-11-06T06:16:15.918Z,16.40
2022-11-06T06:18:49.633Z,19.50
2022-11-06T06:21:22.043Z,23.95
2022-11-06T06:23:55.117Z,21.10
2022-11-06T06:26:27.658Z,20.17
2022-11-06T06:29:01.444Z,13.90
2022-11-06T06:31:33.847Z,15.45
2022-11-06T06:34:06.238Z,23.90
2022-11-06T06:36:38.605Z,19.30
2022-11-06T06:39:11.650Z,16.65
2022-11-06T06:41:43.962Z,18.75
2022-11-06T06:44:16.553Z,15.82
2022-11-06T06:46:48.992Z,21.08
2022-11-06T06:49:21.333Z,18.13
2022-11-06T06:51:54.546Z,18.63
2022-11-06T06:54:27.609Z,21.33
2022-11-06T06:56:59.954Z,18.25
2022-11-06T06:59:32.365Z,20.40
2022-11-06T07:02:04.862Z,19.67
2022-11-06T07:04:37.461Z,20.83
2022-11-06T07:07:09.805Z,20.33
2022-11-06T07:09:42.802Z,16.95
2022-11-06T07:12:15.165Z,20.95
2022-11-06T07:14:47.515Z,22.48
2022-11-06T07:17:19.854Z,19.27
2022-11-06T07:19:52.225Z,18.67
2022-11-06T07:22:32.364Z,24.98
2022-11-06T07:25:10.076Z,26.48
2022-11-06T07:27:42.423Z,18.90
2022-11-06T07:30:14.897Z,19.45
2022-11-06T07:32:47.287Z,26.30
2022-11-06T07:35:19.628Z,27.02
2022-11-06T07:37:51.933Z,23.50
2022-11-06T07:40:24.925Z,17.38
2022-11-06T07:43:03.570Z,22.13
2022-11-06T07:45:36.819Z,26.75
2022-11-06T07:48:09.202Z,20.05
2022-11-06T07:50:41.593Z,22.08
2022-11-06T07:53:14.124Z,19.50
2022-11-06T07:55:50.960Z,25.38
2022-11-06T07:58:24.350Z,18.60
2022-11-06T08:00:58.378Z,18.80
2022-11-06T08:03:31.305Z,26.30
2022-11-06T08:06:04.616Z,18.50
2022-11-06T08:08:36.970Z,22.30
2022-11-06T08:11:11.413Z,18.50
2022-11-06T08:13:43.842Z,22.70
2022-11-06T08:16:16.179Z,19.00
2022-11-06T08:18:48.502Z,17.13
2022-11-06T08:21:20.815Z,18.42
2022-11-06T08:23:53.169Z,21.92
2022-11-06T08:26:26.861Z,26.05
2022-11-06T08:28:59.314Z,26.88
2022-11-06T08:31:31.718Z,42.30
2022-11-06T08:34:04.092Z,78.03
2022-11-06T08:36:38.668Z,30.80
2022-11-06T08:39:11.080Z,26.23
2022-11-06T08:41:44.701Z,28.05
2022-11-06T08:44:17.257Z,30.23
2022-11-06T08:46:52.165Z,32.58
2022-11-06T08:49:24.759Z,32.50
2022-11-06T08:51:57.116Z,31.02
2022-11-06T08:54:29.575Z,32.08
2022-11-06T08:57:03.348Z,32.47
2022-11-06T08:59:35.746Z,33.90
2022-11-06T09:02:12.205Z,31.48
2022-11-06T09:04:44.644Z,33.17
2022-11-06T09:07:17.228Z,29.75
2022-11-06T09:09:49.614Z,21.85
2022-11-06T09:12:22.647Z,27.88
2022-11-06T09:14:55.048Z,36.53
2022-11-06T09:17:27.559Z,39.63
2022-11-06T09:19:59.914Z,27.05
2022-11-06T09:22:32.304Z,38.40
2022-11-06T09:25:05.845Z,34.38
2022-11-06T09:27:43.813Z,33.50
2022-11-06T09:30:17.797Z,38.30
2022-11-06T09:32:51.619Z,30.15
2022-11-06T09:35:25.301Z,26.50
2022-11-06T09:38:01.246Z,39.05
2022-11-06T09:40:35.991Z,28.90
2022-11-06T09:43:50.201Z,42.33
2022-11-06T09:46:22.205Z,42.15
2022-11-06T09:48:58.515Z,38.58
2022-11-06T09:51:39.781Z,35.85
2022-11-06T09:54:17.369Z,23.58
2022-11-06T09:56:55.330Z,30.85
2022-11-06T09:59:30.915Z,30.83
2022-11-06T10:02:18.817Z,32.90
2022-11-06T10:04:59.041Z,28.25
2022-11-06T10:07:34.838Z,26.20
2022-11-06T10:10:14.440Z,44.17
2022-11-06T10:13:08.636Z,35.55
2022-11-06T10:15:48.889Z,44.75
2022-11-06T10:18:30.797Z,43.90
2022-11-06T10:21:11.011Z,42.25
2022-11-06T10:23:47.901Z,49.90
2022-11-06T10:26:28.648Z,43.47
2022-11-06T10:29:23.317Z,50.75
2022-11-06T10:32:27.753Z,48.92
2022-11-06T10:35:03.647Z,42.22
2022-11-06T10:37:42.554Z,46.03
2022-11-06T10:40:18.306Z,35.97
2022-11-06T10:43:00.213Z,34.40
2022-11-06T10:45:35.086Z,39.60
2022-11-06T10:48:26.002Z,34.30
2022-11-06T10:51:27.363Z,36.90
2022-11-06T10:54:13.221Z,28.67
2022-11-06T10:57:01.590Z,33.83
2022-11-06T10:59:34.163Z,29.48
2022-11-06T11:02:22.285Z,25.13
2022-11-06T11:04:58.152Z,31.23
2022-11-06T11:07:33.861Z,30.30
2022-11-06T11:10:25.204Z,26.58
2022-11-06T11:13:04.077Z,28.13
2022-11-06T11:15:46.423Z,31.25
2022-11-06T11:18:22.829Z,28.40
2022-11-06T11:21:06.348Z,30.92
2022-11-06T11:23:38.967Z,28.65
2022-11-06T11:26:22.065Z,34.53
2022-11-06T11:28:56.527Z,33.75
2022-11-06T11:31:31.525Z,33.67
2022-11-06T11:34:14.474Z,32.58
2022-11-06T11:36:57.432Z,37.35
2022-11-06T11:39:32.424Z,34.30
2022-11-06T11:42:32.129Z,31.25
2022-11-06T11:47:49.263Z,33.30
2022-11-06T11:50:30.883Z,27.50
2022-11-06T11:53:10.827Z,23.17
2022-11-06T11:55:45.836Z,39.55
2022-11-06T11:58:22.456Z,30.67
2022-11-06T12:00:57.868Z,27.40
2022-11-06T12:03:34.415Z,30.35
2022-11-06T12:06:10.046Z,24.38
2022-11-06T12:08:48.688Z,19.88
2022-11-06T12:11:24.274Z,19.27
2022-11-06T12:14:39.381Z,19.75
2022-11-06T12:17:17.681Z,13.80
2022-11-06T12:19:54.235Z,19.25
2022-11-06T12:22:32.357Z,13.90
2022-11-06T12:25:12.582Z,16.77
2022-11-06T12:27:50.971Z,35.55
2022-11-06T12:30:23.525Z,14.43
2022-11-06T12:33:05.882Z,17.15
2022-11-06T12:35:41.976Z,16.75
2022-11-06T12:38:21.302Z,15.98
2022-11-06T12:41:00.788Z,16.23
2022-11-06T12:43:40.138Z,17.10
2022-11-06T12:46:38.254Z,31.67
2022-11-06T12:49:56.131Z,14.13
2022-11-06T12:52:42.204Z,21.92
2022-11-06T12:55:22.805Z,22.80
2022-11-06T12:58:09.499Z,17.83
2022-11-06T13:00:54.589Z,19.42
2022-11-06T13:03:52.145Z,17.75
2022-11-06T13:06:36.345Z,20.52
2022-11-06T13:09:15.925Z,27.13
2022-11-06T13:11:55.146Z,21.17
2022-11-06T13:14:32.182Z,25.05
2022-11-06T13:17:12.825Z,19.60
2022-11-06T13:19:53.661Z,18.70
2022-11-06T13:22:29.890Z,20.92
2022-11-06T13:25:10.647Z,19.33
2022-11-06T13:27:51.360Z,20.70
2022-11-06T13:30:26.133Z,21.02
2022-11-06T13:33:05.936Z,21.30
2022-11-06T13:35:41.748Z,23.52
2022-11-06T13:38:20.665Z,22.48
2022-11-06T13:41:02.193Z,20.73
2022-11-06T13:43:40.912Z,15.68
2022-11-06T13:46:25.013Z,19.35
2022-11-06T13:49:08.269Z,16.27
2022-11-06T13:51:50.480Z,16.67
2022-11-06T13:54:32.286Z,25.45
2022-11-06T13:57:35.953Z,18.27
2022-11-06T14:00:17.626Z,19.83
2022-11-06T14:03:39.142Z,45.90
2022-11-06T14:06:17.645Z,21.05
2022-11-06T14:08:53.139Z,16.42
2022-11-06T14:11:28.854Z,28.55
2022-11-06T14:14:03.377Z,20.00
2022-11-06T14:16:37.509Z,15.65
2022-11-06T14:19:14.205Z,22.88
2022-11-06T14:21:49.344Z,17.65
2022-11-06T14:24:39.841Z,14.85
2022-11-06T14:27:33.096Z,15.57
2022-11-06T14:31:11.030Z,22.27
2022-11-06T14:33:58.501Z,15.27
2022-11-06T14:36:36.090Z,13.70
2022-11-06T14:39:13.312Z,16.60
2022-11-06T14:41:57.938Z,13.05
2022-11-06T14:44:43.018Z,13.35
2022-11-06T14:47:30.714Z,13.88
2022-11-06T14:50:08.177Z,11.25
2022-11-06T14:52:45.405Z,11.95
2022-11-06T14:55:28.271Z,13.10
2022-11-06T14:58:14.359Z,17.63
2022-11-06T15:00:51.922Z,11.85
2022-11-06T15:03:30.854Z,16.85
2022-11-06T15:06:19.728Z,18.60
2022-11-06T15:08:58.542Z,15.50
2022-11-06T15:12:08.500Z,14.05
2022-11-06T15:14:55.039Z,12.43
2022-11-06T15:17:31.972Z,16.33
2022-11-06T15:20:21.263Z,17.65
2022-11-06T15:23:18.017Z,16.75
2022-11-06T15:26:00.572Z,19.42
2022-11-06T15:28:41.370Z,12.98
2022-11-06T15:31:16.681Z,17.85
2022-11-06T15:33:59.045Z,16.90
2022-11-06T15:36:38.424Z,17.58
2022-11-06T15:39:31.588Z,16.08
2022-11-06T15:42:07.782Z,10.95
2022-11-06T15:44:41.972Z,11.20
2022-11-06T15:47:21.761Z,21.30
2022-11-06T15:52:40.484Z,12.07
2022-11-06T15:55:13.457Z,10.32
2022-11-06T15:57:45.804Z,11.90
2022-11-06T16:00:20.261Z,74.32
2022-11-06T16:02:58.866Z,31.88
2022-11-06T16:05:34.097Z,24.38
2022-11-06T16:08:07.551Z,21.10
2022-11-06T16:10:41.013Z,47.42
2022-11-06T16:13:16.487Z,25.50
2022-11-06T16:15:54.576Z,30.27
2022-11-06T16:18:29.562Z,28.73
2022-11-06T16:21:11.388Z,32.83
2022-11-06T16:23:49.395Z,33.67
2022-11-06T16:26:26.481Z,42.70
2022-11-06T16:29:00.372Z,43.65
2022-11-06T16:31:33.252Z,46.28
2022-11-06T16:34:07.875Z,47.17
2022-11-06T16:36:52.660Z,54.13
2022-11-06T16:39:50.576Z,52.65
2022-11-06T16:42:26.264Z,50.45
2022-11-06T16:45:08.357Z,47.17
2022-11-06T16:47:40.717Z,56.13
2022-11-06T16:50:42.619Z,55.53
2022-11-06T16:53:19.444Z,41.83
2022-11-06T16:55:58.038Z,57.20
2022-11-06T16:58:34.064Z,69.57
2022-11-06T17:01:06.861Z,75.68
2022-11-06T17:03:45.661Z,68.15
2022-11-06T17:06:21.995Z,73.43
2022-11-06T17:09:09.434Z,70.90
2022-11-06T17:11:43.062Z,61.42
2022-11-06T17:14:18.918Z,54.30
2022-11-06T17:16:53.142Z,51.92
2022-11-06T17:19:26.741Z,55.20
2022-11-06T17:21:59.065Z,60.30
2022-11-06T17:24:36.383Z,53.60
2022-11-06T17:27:10.312Z,48.97
2022-11-06T17:29:42.791Z,31.80
2022-11-06T17:32:15.140Z,39.47
2022-11-06T17:34:47.465Z,37.17
2022-11-06T17:37:21.353Z,33.50
2022-11-06T17:39:53.751Z,43.75
2022-11-06T17:42:26.830Z,61.20
2022-11-06T17:44:59.157Z,114.63
2022-11-06T17:47:31.573Z,97.13
2022-11-06T17:50:04.424Z,109.20
2022-11-06T17:52:36.765Z,108.75
2022-11-06T17:55:09.129Z,106.07
2022-11-06T17:57:42.606Z,112.32
2022-11-06T18:00:15.255Z,104.68
2022-11-06T18:03:01.034Z,97.55
2022-11-06T18:05:35.261Z,94.60
2022-11-06T18:08:12.119Z,110.22
2022-11-06T18:10:44.699Z,77.55
2022-11-06T18:13:17.773Z,65.55
2022-11-06T18:15:51.810Z,47.63
2022-11-06T18:18:24.208Z,28.52
2022-11-06T18:20:56.886Z,26.45
2022-11-06T18:23:29.251Z,28.13
2022-11-06T18:26:01.732Z,24.17
2022-11-06T18:28:34.799Z,30.80
2022-11-06T18:31:07.205Z,25.48
2022-11-06T18:33:39.609Z,23.73
2022-11-06T18:36:13.486Z,22.23
2022-11-06T18:38:46.111Z,24.95
2022-11-06T18:41:20.693Z,21.48
2022-11-06T18:43:56.750Z,21.00
2022-11-06T18:46:29.580Z,23.30
2022-11-06T18:49:02.052Z,20.40
2022-11-06T18:51:36.194Z,22.85
2022-11-06T18:54:10.907Z,23.17
2022-11-06T18:56:43.281Z,22.55
2022-11-06T18:59:18.870Z,27.88
2022-11-06T19:01:51.366Z,27.05
2022-11-06T19:04:25.831Z,28.63
2022-11-06T19:06:58.244Z,25.25
2022-11-06T19:09:30.652Z,25.27
2022-11-06T19:12:03.079Z,29.25
2022-11-06T19:14:36.215Z,30.17
2022-11-06T19:17:08.584Z,30.05
2022-11-06T19:19:41.043Z,37.88
2022-11-06T19:22:13.409Z,33.63
2022-11-06T19:24:46.005Z,26.10
2022-11-06T19:27:18.366Z,30.67
2022-11-06T19:29:52.080Z,27.90
2022-11-06T19:32:24.579Z,27.90
2022-11-06T19:34:57.010Z,25.58
2022-11-06T19:37:31.572Z,26.45
2022-11-06T19:40:06.285Z,24.30
2022-11-06T19:42:38.964Z,25.95
2022-11-06T19:45:12.113Z,28.38
2022-11-06T19:47:44.457Z,26.33
2022-11-06T19:50:25.018Z,27.85
2022-11-06T19:53:05.705Z,22.70
2022-11-06T19:55:38.811Z,24.70
2022-11-06T19:58:11.251Z,26.50
2022-11-06T20:00:44.676Z,25.83
2022-11-06T20:03:17.334Z,25.85
2022-11-06T20:05:51.726Z,30.70
2022-11-06T20:08:24.080Z,34.90
2022-11-06T20:11:02.530Z,28.15
2022-11-06T20:13:35.893Z,27.67
2022-11-06T20:16:11.437Z,23.98
2022-11-06T20:18:44.207Z,57.63
2022-11-06T20:21:16.607Z,39.85
2022-11-06T20:23:49.312Z,29.63
2022-11-06T20:26:22.305Z,28.08
2022-11-06T20:28:54.658Z,28.10
2022-11-06T20:31:27.946Z,27.98
2022-11-06T20:34:00.546Z,26.67
2022-11-06T20:36:34.866Z,27.85
2022-11-06T20:39:08.467Z,26.42
2022-11-06T20:41:41.024Z,27.38
2022-11-06T20:44:13.413Z,28.30
2022-11-06T20:46:47.992Z,27.65
2022-11-06T20:49:20.536Z,28.45
2022-11-06T20:52:13.243Z,33.92
2022-11-06T20:54:47.565Z,29.38
2022-11-06T20:57:20.079Z,30.10
2022-11-06T20:59:52.498Z,29.98
2022-11-06T21:02:25.868Z,30.13
2022-11-06T21:04:58.313Z,32.33
2022-11-06T21:07:30.661Z,30.73
2022-11-06T21:10:03.353Z,38.13
2022-11-06T21:12:35.773Z,32.17
2022-11-06T21:15:08.573Z,35.00
2022-11-06T21:17:42.346Z,38.42
2022-11-06T21:20:16.947Z,34.75
2022-11-06T21:22:52.741Z,45.85
2022-11-06T21:25:25.112Z,39.85
2022-11-06T21:27:57.566Z,46.90
2022-11-06T21:30:29.940Z,37.10
2022-11-06T21:33:02.952Z,32.25
2022-11-06T21:35:35.814Z,44.38
2022-11-06T21:38:08.467Z,33.33
2022-11-06T21:40:40.866Z,40.53
2022-11-06T21:43:13.575Z,42.03
2022-11-06T21:45:46.165Z,45.00
2022-11-06T21:48:32.846Z,45.65
2022-11-06T21:51:13.596Z,40.28
2022-11-06T21:54:04.212Z,45.83
2022-11-06T21:56:37.797Z,58.10
2022-11-06T21:59:12.298Z,62.60
2022-11-06T22:01:44.830Z,65.82
2022-11-06T22:04:18.005Z,52.70
2022-11-06T22:06:51.603Z,48.10
2022-11-06T22:09:26.022Z,44.47
2022-11-06T22:11:59.219Z,41.55
2022-11-06T22:14:31.684Z,45.95
2022-11-06T22:17:04.045Z,45.80
2022-11-06T22:19:37.121Z,48.45
2022-11-06T22:22:09.470Z,43.40
2022-11-06T22:24:41.857Z,50.05
2022-11-06T22:27:14.221Z,48.53
2022-11-06T22:29:46.584Z,47.50
2022-11-06T22:32:18.930Z,38.78
2022-11-06T22:34:52.132Z,38.75
2022-11-06T22:37:24.506Z,50.88
2022-11-06T22:39:56.874Z,41.22
2022-11-06T22:42:29.247Z,38.15
2022-11-06T22:45:01.786Z,30.52
2022-11-06T22:47:34.161Z,31.83
2022-11-06T22:50:08.217Z,30.67
2022-11-06T22:52:40.519Z,32.35
2022-11-06T22:55:12.873Z,27.02
2022-11-06T22:57:45.202Z,28.35
2022-11-06T23:00:21.681Z,29.20
2022-11-06T23:02:54.110Z,27.90
2022-11-06T23:05:27.337Z,36.45
2022-11-06T23:07:59.652Z,32.13
2022-11-06T23:10:34.194Z,31.23
2022-11-06T23:13:06.541Z,32.72
2022-11-06T23:15:38.928Z,30.27
2022-11-06T23:18:11.422Z,30.25
2022-11-06T23:20:44.565Z,28.88
2022-11-06T23:23:17.157Z,33.65
2022-11-06T23:25:49.645Z,26.35
2022-11-06T23:28:22.009Z,30.98
2022-11-06T23:30:54.381Z,41.72
2022-11-06T23:33:26.717Z,26.08
2022-11-06T23:36:03.852Z,28.80
2022-11-06T23:38:36.313Z,31.33
2022-11-06T23:41:24.787Z,29.73
2022-11-06T23:43:58.256Z,28.23
2022-11-06T23:46:32.397Z,31.63
2022-11-06T23:49:04.765Z,27.30
2022-11-06T23:51:37.811Z,27.85
2022-11-06T23:54:10.228Z,30.65
2022-11-06T23:56:42.623Z,26.92
2022-11-06T23:59:15.125Z,35.60
